sensor_id;sensor_type;location;lat;lon;timestamp;temperature;humidity
80290;SHT30;69592;44.804;-0.550;2023-10-13T00:01:24;19.89;80.00
80290;SHT30;69592;44.804;-0.550;2023-10-13T00:03:50;19.89;80.22
80290;SHT30;69592;44.804;-0.550;2023-10-13T00:06:19;19.86;80.23
80290;SHT30;69592;44.804;-0.550;2023-10-13T00:08:45;19.82;80.16
80290;SHT30;69592;44.804;-0.550;2023-10-13T00:11:15;19.72;80.35
80290;SHT30;69592;44.804;-0.550;2023-10-13T00:13:41;19.70;80.42
80290;SHT30;69592;44.804;-0.550;2023-10-13T00:16:20;19.68;80.50
80290;SHT30;69592;44.804;-0.550;2023-10-13T00:18:53;19.65;80.57
80290;SHT30;69592;44.804;-0.550;2023-10-13T00:21:26;19.58;80.19
80290;SHT30;69592;44.804;-0.550;2023-10-13T00:23:59;19.55;80.30
80290;SHT30;69592;44.804;-0.550;2023-10-13T00:26:28;19.55;80.52
80290;SHT30;69592;44.804;-0.550;2023-10-13T00:29:00;19.52;80.56
80290;SHT30;69592;44.804;-0.550;2023-10-13T00:31:39;19.55;80.22
80290;SHT30;69592;44.804;-0.550;2023-10-13T00:34:08;19.51;80.52
80290;SHT30;69592;44.804;-0.550;2023-10-13T00:36:36;19.48;80.74
80290;SHT30;69592;44.804;-0.550;2023-10-13T00:39:02;19.47;80.67
80290;SHT30;69592;44.804;-0.550;2023-10-13T00:41:31;19.44;80.47
80290;SHT30;69592;44.804;-0.550;2023-10-13T00:44:18;19.38;80.51
80290;SHT30;69592;44.804;-0.550;2023-10-13T00:46:54;19.36;80.63
80290;SHT30;69592;44.804;-0.550;2023-10-13T00:49:21;19.34;80.39
80290;SHT30;69592;44.804;-0.550;2023-10-13T00:51:48;19.31;80.72
80290;SHT30;69592;44.804;-0.550;2023-10-13T00:54:14;19.24;80.55
80290;SHT30;69592;44.804;-0.550;2023-10-13T00:56:45;19.19;80.84
80290;SHT30;69592;44.804;-0.550;2023-10-13T00:59:23;19.18;80.74
80290;SHT30;69592;44.804;-0.550;2023-10-13T01:01:50;19.15;80.64
80290;SHT30;69592;44.804;-0.550;2023-10-13T01:04:20;19.15;80.77
80290;SHT30;69592;44.804;-0.550;2023-10-13T01:06:48;19.14;80.94
80290;SHT30;69592;44.804;-0.550;2023-10-13T01:09:17;19.08;80.63
80290;SHT30;69592;44.804;-0.550;2023-10-13T01:11:45;19.04;80.76
80290;SHT30;69592;44.804;-0.550;2023-10-13T01:14:12;19.03;81.10
80290;SHT30;69592;44.804;-0.550;2023-10-13T01:16:38;19.00;80.63
80290;SHT30;69592;44.804;-0.550;2023-10-13T01:19:13;19.00;81.02
80290;SHT30;69592;44.804;-0.550;2023-10-13T01:21:39;18.97;80.90
80290;SHT30;69592;44.804;-0.550;2023-10-13T01:24:10;18.91;80.67
80290;SHT30;69592;44.804;-0.550;2023-10-13T01:26:36;18.87;80.67
80290;SHT30;69592;44.804;-0.550;2023-10-13T01:29:05;18.91;80.61
80290;SHT30;69592;44.804;-0.550;2023-10-13T01:31:41;18.88;80.61
80290;SHT30;69592;44.804;-0.550;2023-10-13T01:34:17;18.88;80.31
80290;SHT30;69592;44.804;-0.550;2023-10-13T01:36:48;18.87;79.99
80290;SHT30;69592;44.804;-0.550;2023-10-13T01:39:16;18.81;79.79
80290;SHT30;69592;44.804;-0.550;2023-10-13T01:41:42;18.77;80.28
80290;SHT30;69592;44.804;-0.550;2023-10-13T01:44:09;18.77;79.97
80290;SHT30;69592;44.804;-0.550;2023-10-13T01:46:37;18.73;80.10
80290;SHT30;69592;44.804;-0.550;2023-10-13T01:49:02;18.74;79.61
80290;SHT30;69592;44.804;-0.550;2023-10-13T01:51:28;18.68;79.86
80290;SHT30;69592;44.804;-0.550;2023-10-13T01:53:54;18.71;79.55
80290;SHT30;69592;44.804;-0.550;2023-10-13T01:56:21;18.73;79.64
80290;SHT30;69592;44.804;-0.550;2023-10-13T01:58:48;18.70;79.55
80290;SHT30;69592;44.804;-0.550;2023-10-13T02:01:14;18.78;79.88
80290;SHT30;69592;44.804;-0.550;2023-10-13T02:03:52;18.77;79.68
80290;SHT30;69592;44.804;-0.550;2023-10-13T02:06:26;18.81;79.23
80290;SHT30;69592;44.804;-0.550;2023-10-13T02:08:57;18.76;79.23
80290;SHT30;69592;44.804;-0.550;2023-10-13T02:11:28;18.67;79.13
80290;SHT30;69592;44.804;-0.550;2023-10-13T02:13:55;18.70;79.33
80290;SHT30;69592;44.804;-0.550;2023-10-13T02:16:22;18.68;79.57
80290;SHT30;69592;44.804;-0.550;2023-10-13T02:18:50;18.68;79.41
80290;SHT30;69592;44.804;-0.550;2023-10-13T02:21:17;18.67;79.33
80290;SHT30;69592;44.804;-0.550;2023-10-13T02:23:43;18.66;79.39
80290;SHT30;69592;44.804;-0.550;2023-10-13T02:26:12;18.59;79.52
80290;SHT30;69592;44.804;-0.550;2023-10-13T02:28:40;18.60;79.48
80290;SHT30;69592;44.804;-0.550;2023-10-13T02:31:05;18.64;79.52
80290;SHT30;69592;44.804;-0.550;2023-10-13T02:33:33;18.63;79.72
80290;SHT30;69592;44.804;-0.550;2023-10-13T02:36:03;18.59;79.81
80290;SHT30;69592;44.804;-0.550;2023-10-13T02:38:30;18.55;79.59
80290;SHT30;69592;44.804;-0.550;2023-10-13T02:41:17;18.45;79.92
80290;SHT30;69592;44.804;-0.550;2023-10-13T02:44:06;18.43;80.00
80290;SHT30;69592;44.804;-0.550;2023-10-13T02:46:33;18.36;79.94
80290;SHT30;69592;44.804;-0.550;2023-10-13T02:49:01;18.29;80.34
80290;SHT30;69592;44.804;-0.550;2023-10-13T02:51:35;18.33;80.50
80290;SHT30;69592;44.804;-0.550;2023-10-13T02:54:01;18.28;80.39
80290;SHT30;69592;44.804;-0.550;2023-10-13T02:56:35;18.25;80.38
80290;SHT30;69592;44.804;-0.550;2023-10-13T02:59:02;18.23;80.56
80290;SHT30;69592;44.804;-0.550;2023-10-13T03:01:35;18.16;80.77
80290;SHT30;69592;44.804;-0.550;2023-10-13T03:04:04;18.16;80.86
80290;SHT30;69592;44.804;-0.550;2023-10-13T03:06:34;18.15;80.85
80290;SHT30;69592;44.804;-0.550;2023-10-13T03:09:02;18.06;81.05
80290;SHT30;69592;44.804;-0.550;2023-10-13T03:11:49;18.03;81.17
80290;SHT30;69592;44.804;-0.550;2023-10-13T03:14:20;18.06;81.08
80290;SHT30;69592;44.804;-0.550;2023-10-13T03:17:05;18.06;81.19
80290;SHT30;69592;44.804;-0.550;2023-10-13T03:19:33;18.10;81.01
80290;SHT30;69592;44.804;-0.550;2023-10-13T03:22:06;18.03;81.28
80290;SHT30;69592;44.804;-0.550;2023-10-13T03:24:42;18.01;81.30
80290;SHT30;69592;44.804;-0.550;2023-10-13T03:27:15;18.01;81.59
80290;SHT30;69592;44.804;-0.550;2023-10-13T03:29:49;17.93;81.46
80290;SHT30;69592;44.804;-0.550;2023-10-13T03:32:22;17.91;81.34
80290;SHT30;69592;44.804;-0.550;2023-10-13T03:34:51;17.86;81.26
80290;SHT30;69592;44.804;-0.550;2023-10-13T03:37:26;17.88;81.58
80290;SHT30;69592;44.804;-0.550;2023-10-13T03:40:02;17.84;81.50
80290;SHT30;69592;44.804;-0.550;2023-10-13T03:42:32;17.82;81.48
80290;SHT30;69592;44.804;-0.550;2023-10-13T03:44:57;17.79;81.65
80290;SHT30;69592;44.804;-0.550;2023-10-13T03:47:22;17.78;81.68
80290;SHT30;69592;44.804;-0.550;2023-10-13T03:49:57;17.78;81.65
80290;SHT30;69592;44.804;-0.550;2023-10-13T03:52:43;17.81;81.63
80290;SHT30;69592;44.804;-0.550;2023-10-13T03:55:09;17.77;81.47
80290;SHT30;69592;44.804;-0.550;2023-10-13T03:57:42;17.81;81.59
80290;SHT30;69592;44.804;-0.550;2023-10-13T04:00:08;17.77;81.62
80290;SHT30;69592;44.804;-0.550;2023-10-13T04:02:35;17.79;81.75
80290;SHT30;69592;44.804;-0.550;2023-10-13T04:05:02;17.81;81.62
80290;SHT30;69592;44.804;-0.550;2023-10-13T04:07:34;17.82;81.65
80290;SHT30;69592;44.804;-0.550;2023-10-13T04:10:25;17.77;81.77
80290;SHT30;69592;44.804;-0.550;2023-10-13T04:13:09;17.77;81.89
80290;SHT30;69592;44.804;-0.550;2023-10-13T04:15:43;17.72;82.16
80290;SHT30;69592;44.804;-0.550;2023-10-13T04:18:28;17.74;82.14
80290;SHT30;69592;44.804;-0.550;2023-10-13T04:21:12;17.79;81.96
80290;SHT30;69592;44.804;-0.550;2023-10-13T04:24:11;17.79;81.92
80290;SHT30;69592;44.804;-0.550;2023-10-13T04:26:47;17.75;81.97
80290;SHT30;69592;44.804;-0.550;2023-10-13T04:29:32;17.77;81.91
80290;SHT30;69592;44.804;-0.550;2023-10-13T04:32:16;17.77;81.98
80290;SHT30;69592;44.804;-0.550;2023-10-13T04:34:58;17.74;82.01
80290;SHT30;69592;44.804;-0.550;2023-10-13T04:37:46;17.78;82.11
80290;SHT30;69592;44.804;-0.550;2023-10-13T04:40:40;17.82;82.16
80290;SHT30;69592;44.804;-0.550;2023-10-13T04:43:23;17.84;82.09
80290;SHT30;69592;44.804;-0.550;2023-10-13T04:45:59;17.88;82.11
80290;SHT30;69592;44.804;-0.550;2023-10-13T04:48:39;17.91;82.42
80290;SHT30;69592;44.804;-0.550;2023-10-13T04:51:05;17.86;82.40
80290;SHT30;69592;44.804;-0.550;2023-10-13T04:54:09;17.86;82.67
80290;SHT30;69592;44.804;-0.550;2023-10-13T04:56:50;17.86;82.75
80290;SHT30;69592;44.804;-0.550;2023-10-13T04:59:16;17.84;82.76
80290;SHT30;69592;44.804;-0.550;2023-10-13T05:02:01;17.86;82.92
80290;SHT30;69592;44.804;-0.550;2023-10-13T05:04:45;17.82;82.87
80290;SHT30;69592;44.804;-0.550;2023-10-13T05:07:46;17.79;82.81
80290;SHT30;69592;44.804;-0.550;2023-10-13T05:10:31;17.75;82.79
80290;SHT30;69592;44.804;-0.550;2023-10-13T05:13:15;17.75;83.01
80290;SHT30;69592;44.804;-0.550;2023-10-13T05:15:59;17.77;83.27
80290;SHT30;69592;44.804;-0.550;2023-10-13T05:18:43;17.70;83.41
80290;SHT30;69592;44.804;-0.550;2023-10-13T05:21:30;17.70;83.46
80290;SHT30;69592;44.804;-0.550;2023-10-13T05:24:14;17.72;83.74
80290;SHT30;69592;44.804;-0.550;2023-10-13T05:27:01;17.72;83.58
80290;SHT30;69592;44.804;-0.550;2023-10-13T05:29:47;17.60;84.13
80290;SHT30;69592;44.804;-0.550;2023-10-13T05:32:31;17.65;84.03
80290;SHT30;69592;44.804;-0.550;2023-10-13T05:35:15;17.64;84.03
80290;SHT30;69592;44.804;-0.550;2023-10-13T05:38:00;17.62;84.21
80290;SHT30;69592;44.804;-0.550;2023-10-13T05:41:19;17.67;84.25
80290;SHT30;69592;44.804;-0.550;2023-10-13T05:44:03;17.67;84.35
80290;SHT30;69592;44.804;-0.550;2023-10-13T05:46:47;17.70;84.32
80290;SHT30;69592;44.804;-0.550;2023-10-13T05:49:31;17.68;84.55
80290;SHT30;69592;44.804;-0.550;2023-10-13T05:52:15;17.61;84.82
80290;SHT30;69592;44.804;-0.550;2023-10-13T05:55:02;17.55;85.10
80290;SHT30;69592;44.804;-0.550;2023-10-13T05:57:46;17.52;85.52
80290;SHT30;69592;44.804;-0.550;2023-10-13T06:00:30;17.52;85.53
80290;SHT30;69592;44.804;-0.550;2023-10-13T06:03:14;17.50;85.73
80290;SHT30;69592;44.804;-0.550;2023-10-13T06:05:58;17.50;85.73
80290;SHT30;69592;44.804;-0.550;2023-10-13T06:08:42;17.45;86.03
80290;SHT30;69592;44.804;-0.550;2023-10-13T06:11:26;17.45;86.35
80290;SHT30;69592;44.804;-0.550;2023-10-13T06:14:10;17.48;86.31
80290;SHT30;69592;44.804;-0.550;2023-10-13T06:16:54;17.45;86.47
80290;SHT30;69592;44.804;-0.550;2023-10-13T06:19:40;17.48;86.63
80290;SHT30;69592;44.804;-0.550;2023-10-13T06:22:24;17.52;86.72
80290;SHT30;69592;44.804;-0.550;2023-10-13T06:25:08;17.47;86.99
80290;SHT30;69592;44.804;-0.550;2023-10-13T06:27:52;17.52;86.96
80290;SHT30;69592;44.804;-0.550;2023-10-13T06:30:36;17.51;87.24
80290;SHT30;69592;44.804;-0.550;2023-10-13T06:33:04;17.50;87.37
80290;SHT30;69592;44.804;-0.550;2023-10-13T06:35:30;17.48;87.52
80290;SHT30;69592;44.804;-0.550;2023-10-13T06:37:56;17.55;87.36
80290;SHT30;69592;44.804;-0.550;2023-10-13T06:40:25;17.57;87.66
80290;SHT30;69592;44.804;-0.550;2023-10-13T06:42:52;17.65;87.45
80290;SHT30;69592;44.804;-0.550;2023-10-13T06:45:18;17.70;87.50
80290;SHT30;69592;44.804;-0.550;2023-10-13T06:47:44;17.77;87.38
80290;SHT30;69592;44.804;-0.550;2023-10-13T06:50:10;17.78;87.42
80290;SHT30;69592;44.804;-0.550;2023-10-13T06:52:42;17.75;87.62
80290;SHT30;69592;44.804;-0.550;2023-10-13T06:55:07;17.85;87.49
80290;SHT30;69592;44.804;-0.550;2023-10-13T06:57:35;17.91;87.39
80290;SHT30;69592;44.804;-0.550;2023-10-13T07:00:00;17.86;87.54
80290;SHT30;69592;44.804;-0.550;2023-10-13T07:02:35;18.03;87.33
80290;SHT30;69592;44.804;-0.550;2023-10-13T07:05:01;18.06;87.19
80290;SHT30;69592;44.804;-0.550;2023-10-13T07:07:32;18.09;87.21
80290;SHT30;69592;44.804;-0.550;2023-10-13T07:09:59;18.19;87.11
80290;SHT30;69592;44.804;-0.550;2023-10-13T07:12:25;18.25;86.97
80290;SHT30;69592;44.804;-0.550;2023-10-13T07:14:58;18.32;86.73
80290;SHT30;69592;44.804;-0.550;2023-10-13T07:17:41;18.42;86.74
80290;SHT30;69592;44.804;-0.550;2023-10-13T07:20:10;18.42;86.67
80290;SHT30;69592;44.804;-0.550;2023-10-13T07:22:50;18.45;86.64
80290;SHT30;69592;44.804;-0.550;2023-10-13T07:25:34;18.56;86.40
80290;SHT30;69592;44.804;-0.550;2023-10-13T07:28:08;18.76;85.94
80290;SHT30;69592;44.804;-0.550;2023-10-13T07:30:38;18.83;85.77
80290;SHT30;69592;44.804;-0.550;2023-10-13T07:33:18;18.78;85.94
80290;SHT30;69592;44.804;-0.550;2023-10-13T07:35:47;18.80;85.98
80290;SHT30;69592;44.804;-0.550;2023-10-13T07:38:16;18.86;85.83
80290;SHT30;69592;44.804;-0.550;2023-10-13T07:40:43;19.03;85.19
80290;SHT30;69592;44.804;-0.550;2023-10-13T07:43:18;19.15;85.09
80290;SHT30;69592;44.804;-0.550;2023-10-13T07:45:49;19.29;84.85
80290;SHT30;69592;44.804;-0.550;2023-10-13T07:48:24;19.34;84.62
80290;SHT30;69592;44.804;-0.550;2023-10-13T07:51:05;19.42;84.42
80290;SHT30;69592;44.804;-0.550;2023-10-13T07:53:35;19.51;84.07
80290;SHT30;69592;44.804;-0.550;2023-10-13T07:56:04;19.65;83.92
80290;SHT30;69592;44.804;-0.550;2023-10-13T07:58:39;19.62;83.92
80290;SHT30;69592;44.804;-0.550;2023-10-13T08:01:28;19.79;83.72
80290;SHT30;69592;44.804;-0.550;2023-10-13T08:03:53;19.83;83.53
80290;SHT30;69592;44.804;-0.550;2023-10-13T08:06:36;19.96;83.42
80290;SHT30;69592;44.804;-0.550;2023-10-13T08:09:11;20.12;82.63
80290;SHT30;69592;44.804;-0.550;2023-10-13T08:11:55;20.19;82.56
80290;SHT30;69592;44.804;-0.550;2023-10-13T08:14:21;20.23;82.35
80290;SHT30;69592;44.804;-0.550;2023-10-13T08:16:54;20.34;82.15
80290;SHT30;69592;44.804;-0.550;2023-10-13T08:19:24;20.40;81.82
80290;SHT30;69592;44.804;-0.550;2023-10-13T08:21:58;20.47;81.88
80290;SHT30;69592;44.804;-0.550;2023-10-13T08:24:27;20.53;81.55
80290;SHT30;69592;44.804;-0.550;2023-10-13T08:27:06;20.54;81.27
80290;SHT30;69592;44.804;-0.550;2023-10-13T08:29:45;20.54;81.22
80290;SHT30;69592;44.804;-0.550;2023-10-13T08:32:28;20.61;80.96
80290;SHT30;69592;44.804;-0.550;2023-10-13T08:34:59;20.80;80.93
80290;SHT30;69592;44.804;-0.550;2023-10-13T08:37:31;20.96;80.59
80290;SHT30;69592;44.804;-0.550;2023-10-13T08:40:15;21.02;80.27
80290;SHT30;69592;44.804;-0.550;2023-10-13T08:43:10;21.14;79.71
80290;SHT30;69592;44.804;-0.550;2023-10-13T08:45:40;21.25;79.79
80290;SHT30;69592;44.804;-0.550;2023-10-13T08:48:12;21.39;79.57
80290;SHT30;69592;44.804;-0.550;2023-10-13T08:50:49;21.42;78.97
80290;SHT30;69592;44.804;-0.550;2023-10-13T08:58:42;21.89;78.16
80290;SHT30;69592;44.804;-0.550;2023-10-13T09:01:30;21.87;77.45
80290;SHT30;69592;44.804;-0.550;2023-10-13T09:04:18;22.10;77.45
80290;SHT30;69592;44.804;-0.550;2023-10-13T09:09:31;22.44;77.04
80290;SHT30;69592;44.804;-0.550;2023-10-13T09:12:14;22.45;75.68
80290;SHT30;69592;44.804;-0.550;2023-10-13T09:14:44;22.50;75.69
80290;SHT30;69592;44.804;-0.550;2023-10-13T09:17:26;22.68;75.07
80290;SHT30;69592;44.804;-0.550;2023-10-13T09:20:05;22.78;75.59
80290;SHT30;69592;44.804;-0.550;2023-10-13T09:22:49;22.91;74.74
80290;SHT30;69592;44.804;-0.550;2023-10-13T09:25:28;22.89;74.97
80290;SHT30;69592;44.804;-0.550;2023-10-13T09:30:55;22.75;74.20
80290;SHT30;69592;44.804;-0.550;2023-10-13T09:33:27;22.94;74.56
80290;SHT30;69592;44.804;-0.550;2023-10-13T09:36:06;22.92;74.35
80290;SHT30;69592;44.804;-0.550;2023-10-13T09:38:36;23.03;73.61
80290;SHT30;69592;44.804;-0.550;2023-10-13T09:41:05;23.32;73.33
80290;SHT30;69592;44.804;-0.550;2023-10-13T09:43:44;23.43;72.74
80290;SHT30;69592;44.804;-0.550;2023-10-13T09:46:10;23.59;72.33
80290;SHT30;69592;44.804;-0.550;2023-10-13T09:48:47;23.74;71.87
80290;SHT30;69592;44.804;-0.550;2023-10-13T09:51:18;23.88;71.21
80290;SHT30;69592;44.804;-0.550;2023-10-13T09:54:08;24.03;71.77
80290;SHT30;69592;44.804;-0.550;2023-10-13T09:57:04;24.13;71.65
80290;SHT30;69592;44.804;-0.550;2023-10-13T09:59:59;24.01;70.96
80290;SHT30;69592;44.804;-0.550;2023-10-13T10:02:34;24.05;71.52
80290;SHT30;69592;44.804;-0.550;2023-10-13T10:04:59;24.18;71.24
80290;SHT30;69592;44.804;-0.550;2023-10-13T10:07:56;24.18;70.92
80290;SHT30;69592;44.804;-0.550;2023-10-13T10:10:40;24.41;70.68
80290;SHT30;69592;44.804;-0.550;2023-10-13T10:13:23;24.47;70.52
80290;SHT30;69592;44.804;-0.550;2023-10-13T10:15:58;24.49;70.11
80290;SHT30;69592;44.804;-0.550;2023-10-13T10:18:28;24.61;69.70
80290;SHT30;69592;44.804;-0.550;2023-10-13T10:21:03;24.56;68.90
80290;SHT30;69592;44.804;-0.550;2023-10-13T10:23:33;24.56;69.50
80290;SHT30;69592;44.804;-0.550;2023-10-13T10:26:13;24.83;68.87
80290;SHT30;69592;44.804;-0.550;2023-10-13T10:28:43;25.03;68.40
80290;SHT30;69592;44.804;-0.550;2023-10-13T10:31:12;25.09;68.83
80290;SHT30;69592;44.804;-0.550;2023-10-13T10:33:39;25.10;68.56
80290;SHT30;69592;44.804;-0.550;2023-10-13T10:36:05;25.10;68.38
80290;SHT30;69592;44.804;-0.550;2023-10-13T10:38:31;25.13;67.53
80290;SHT30;69592;44.804;-0.550;2023-10-13T10:41:06;25.23;67.71
80290;SHT30;69592;44.804;-0.550;2023-10-13T10:48:39;25.50;66.04
80290;SHT30;69592;44.804;-0.550;2023-10-13T10:51:14;25.74;64.56
80290;SHT30;69592;44.804;-0.550;2023-10-13T10:53:46;25.85;63.97
80290;SHT30;69592;44.804;-0.550;2023-10-13T10:56:16;26.02;64.41
80290;SHT30;69592;44.804;-0.550;2023-10-13T10:58:46;26.20;64.06
80290;SHT30;69592;44.804;-0.550;2023-10-13T11:01:21;26.31;62.62
80290;SHT30;69592;44.804;-0.550;2023-10-13T11:04:13;26.46;61.86
80290;SHT30;69592;44.804;-0.550;2023-10-13T11:06:53;26.59;61.16
80290;SHT30;69592;44.804;-0.550;2023-10-13T11:09:26;26.82;60.56
80290;SHT30;69592;44.804;-0.550;2023-10-13T11:11:53;26.99;61.07
80290;SHT30;69592;44.804;-0.550;2023-10-13T11:14:26;27.07;60.36
80290;SHT30;69592;44.804;-0.550;2023-10-13T11:16:53;27.13;59.84
80290;SHT30;69592;44.804;-0.550;2023-10-13T11:19:39;27.22;58.96
80290;SHT30;69592;44.804;-0.550;2023-10-13T11:22:17;27.37;58.21
80290;SHT30;69592;44.804;-0.550;2023-10-13T11:24:58;27.53;58.10
80290;SHT30;69592;44.804;-0.550;2023-10-13T11:27:40;27.75;57.98
80290;SHT30;69592;44.804;-0.550;2023-10-13T11:30:18;28.05;57.83
80290;SHT30;69592;44.804;-0.550;2023-10-13T11:33:13;28.26;57.45
80290;SHT30;69592;44.804;-0.550;2023-10-13T11:35:44;28.43;56.86
80290;SHT30;69592;44.804;-0.550;2023-10-13T11:41:00;28.64;55.50
80290;SHT30;69592;44.804;-0.550;2023-10-13T11:43:39;28.90;54.40
80290;SHT30;69592;44.804;-0.550;2023-10-13T11:46:11;29.07;54.20
80290;SHT30;69592;44.804;-0.550;2023-10-13T11:48:37;29.27;54.10
80290;SHT30;69592;44.804;-0.550;2023-10-13T11:51:04;29.35;54.25
80290;SHT30;69592;44.804;-0.550;2023-10-13T11:53:36;29.32;53.54
80290;SHT30;69592;44.804;-0.550;2023-10-13T11:56:02;29.39;53.71
80290;SHT30;69592;44.804;-0.550;2023-10-13T11:58:35;29.48;52.63
80290;SHT30;69592;44.804;-0.550;2023-10-13T12:01:00;29.52;52.14
80290;SHT30;69592;44.804;-0.550;2023-10-13T12:03:42;29.48;52.66
80290;SHT30;69592;44.804;-0.550;2023-10-13T12:06:26;29.75;52.65
80290;SHT30;69592;44.804;-0.550;2023-10-13T12:11:40;29.68;50.28
80290;SHT30;69592;44.804;-0.550;2023-10-13T12:14:08;29.62;50.92
80290;SHT30;69592;44.804;-0.550;2023-10-13T12:16:46;29.76;48.50
80290;SHT30;69592;44.804;-0.550;2023-10-13T12:19:34;29.98;48.29
80290;SHT30;69592;44.804;-0.550;2023-10-13T12:22:00;30.13;47.12
80290;SHT30;69592;44.804;-0.550;2023-10-13T12:24:30;30.37;47.65
80290;SHT30;69592;44.804;-0.550;2023-10-13T12:27:08;30.40;47.23
80290;SHT30;69592;44.804;-0.550;2023-10-13T12:29:52;30.20;47.88
80290;SHT30;69592;44.804;-0.550;2023-10-13T12:32:19;30.13;47.86
80290;SHT30;69592;44.804;-0.550;2023-10-13T12:34:56;30.15;48.30
80290;SHT30;69592;44.804;-0.550;2023-10-13T12:37:28;30.08;47.21
80290;SHT30;69592;44.804;-0.550;2023-10-13T12:40:06;30.02;47.06
80290;SHT30;69592;44.804;-0.550;2023-10-13T12:42:52;30.26;47.75
80290;SHT30;69592;44.804;-0.550;2023-10-13T12:45:43;30.30;47.46
80290;SHT30;69592;44.804;-0.550;2023-10-13T12:48:27;30.13;48.37
80290;SHT30;69592;44.804;-0.550;2023-10-13T12:51:12;30.17;48.63
80290;SHT30;69592;44.804;-0.550;2023-10-13T12:53:56;30.16;48.56
80290;SHT30;69592;44.804;-0.550;2023-10-13T12:56:30;30.16;48.62
80290;SHT30;69592;44.804;-0.550;2023-10-13T12:58:56;30.08;48.50
80290;SHT30;69592;44.804;-0.550;2023-10-13T13:01:23;29.79;49.17
80290;SHT30;69592;44.804;-0.550;2023-10-13T13:03:51;29.74;49.51
80290;SHT30;69592;44.804;-0.550;2023-10-13T13:06:22;29.68;49.78
80290;SHT30;69592;44.804;-0.550;2023-10-13T13:08:59;29.55;50.17
80290;SHT30;69592;44.804;-0.550;2023-10-13T13:11:25;29.50;50.69
80290;SHT30;69592;44.804;-0.550;2023-10-13T13:13:50;29.44;51.17
80290;SHT30;69592;44.804;-0.550;2023-10-13T13:16:18;29.30;52.01
80290;SHT30;69592;44.804;-0.550;2023-10-13T13:18:45;29.22;52.72
80290;SHT30;69592;44.804;-0.550;2023-10-13T13:21:11;29.14;53.80
80290;SHT30;69592;44.804;-0.550;2023-10-13T13:23:48;28.99;54.73
80290;SHT30;69592;44.804;-0.550;2023-10-13T13:26:14;28.73;55.22
80290;SHT30;69592;44.804;-0.550;2023-10-13T13:28:43;28.56;56.19
80290;SHT30;69592;44.804;-0.550;2023-10-13T13:31:09;28.52;56.58
80290;SHT30;69592;44.804;-0.550;2023-10-13T13:33:37;28.45;57.56
80290;SHT30;69592;44.804;-0.550;2023-10-13T13:36:06;28.57;57.25
80290;SHT30;69592;44.804;-0.550;2023-10-13T13:38:32;28.55;57.46
80290;SHT30;69592;44.804;-0.550;2023-10-13T13:40:59;28.38;57.75
80290;SHT30;69592;44.804;-0.550;2023-10-13T13:43:26;28.18;58.18
80290;SHT30;69592;44.804;-0.550;2023-10-13T13:46:19;28.22;58.32
80290;SHT30;69592;44.804;-0.550;2023-10-13T13:48:45;28.28;58.24
80290;SHT30;69592;44.804;-0.550;2023-10-13T13:51:13;28.23;58.76
80290;SHT30;69592;44.804;-0.550;2023-10-13T13:53:45;28.26;58.71
80290;SHT30;69592;44.804;-0.550;2023-10-13T13:56:11;28.38;57.91
80290;SHT30;69592;44.804;-0.550;2023-10-13T13:58:50;28.35;58.25
80290;SHT30;69592;44.804;-0.550;2023-10-13T14:01:16;28.22;58.21
80290;SHT30;69592;44.804;-0.550;2023-10-13T14:03:46;28.06;57.76
80290;SHT30;69592;44.804;-0.550;2023-10-13T14:06:19;28.08;57.39
80290;SHT30;69592;44.804;-0.550;2023-10-13T14:09:03;28.05;57.28
80290;SHT30;69592;44.804;-0.550;2023-10-13T14:11:40;28.10;58.17
80290;SHT30;69592;44.804;-0.550;2023-10-13T14:14:09;28.23;58.26
80290;SHT30;69592;44.804;-0.550;2023-10-13T14:16:41;27.95;58.95
80290;SHT30;69592;44.804;-0.550;2023-10-13T14:19:11;28.01;58.99
80290;SHT30;69592;44.804;-0.550;2023-10-13T14:21:37;27.94;59.33
80290;SHT30;69592;44.804;-0.550;2023-10-13T14:24:03;28.05;58.99
80290;SHT30;69592;44.804;-0.550;2023-10-13T14:26:38;28.13;59.08
80290;SHT30;69592;44.804;-0.550;2023-10-13T14:29:03;28.29;59.06
80290;SHT30;69592;44.804;-0.550;2023-10-13T14:31:33;28.38;59.21
80290;SHT30;69592;44.804;-0.550;2023-10-13T14:34:01;28.45;58.79
80290;SHT30;69592;44.804;-0.550;2023-10-13T14:36:27;28.50;59.07
80290;SHT30;69592;44.804;-0.550;2023-10-13T14:39:00;28.74;58.61
80290;SHT30;69592;44.804;-0.550;2023-10-13T14:41:25;28.73;58.87
80290;SHT30;69592;44.804;-0.550;2023-10-13T14:43:51;28.69;58.76
80290;SHT30;69592;44.804;-0.550;2023-10-13T14:46:18;28.67;58.75
80290;SHT30;69592;44.804;-0.550;2023-10-13T14:48:48;28.90;58.34
80290;SHT30;69592;44.804;-0.550;2023-10-13T14:51:14;28.61;57.96
80290;SHT30;69592;44.804;-0.550;2023-10-13T14:53:46;28.86;58.15
80290;SHT30;69592;44.804;-0.550;2023-10-13T14:58:37;28.76;57.90
80290;SHT30;69592;44.804;-0.550;2023-10-13T15:01:18;28.50;58.40
80290;SHT30;69592;44.804;-0.550;2023-10-13T15:03:44;28.12;58.99
80290;SHT30;69592;44.804;-0.550;2023-10-13T15:06:16;28.32;58.76
80290;SHT30;69592;44.804;-0.550;2023-10-13T15:08:54;28.13;57.33
80290;SHT30;69592;44.804;-0.550;2023-10-13T15:11:21;28.19;57.22
80290;SHT30;69592;44.804;-0.550;2023-10-13T15:13:52;28.16;58.45
80290;SHT30;69592;44.804;-0.550;2023-10-13T15:16:21;28.15;57.40
80290;SHT30;69592;44.804;-0.550;2023-10-13T15:18:48;27.80;56.92
80290;SHT30;69592;44.804;-0.550;2023-10-13T15:21:21;27.71;56.63
80290;SHT30;69592;44.804;-0.550;2023-10-13T15:23:50;27.40;56.90
80290;SHT30;69592;44.804;-0.550;2023-10-13T15:26:17;27.23;56.99
80290;SHT30;69592;44.804;-0.550;2023-10-13T15:28:43;26.97;57.78
80290;SHT30;69592;44.804;-0.550;2023-10-13T15:31:15;26.99;58.15
80290;SHT30;69592;44.804;-0.550;2023-10-13T15:34:01;27.04;58.44
80290;SHT30;69592;44.804;-0.550;2023-10-13T15:36:32;26.89;58.59
80290;SHT30;69592;44.804;-0.550;2023-10-13T15:38:58;26.89;59.20
80290;SHT30;69592;44.804;-0.550;2023-10-13T15:41:25;26.68;58.51
80290;SHT30;69592;44.804;-0.550;2023-10-13T15:43:51;26.52;58.40
80290;SHT30;69592;44.804;-0.550;2023-10-13T15:46:18;26.38;58.67
80290;SHT30;69592;44.804;-0.550;2023-10-13T15:48:46;26.33;58.98
80290;SHT30;69592;44.804;-0.550;2023-10-13T15:51:14;26.31;59.42
80290;SHT30;69592;44.804;-0.550;2023-10-13T15:53:42;26.09;60.16
80290;SHT30;69592;44.804;-0.550;2023-10-13T15:56:08;26.06;60.52
80290;SHT30;69592;44.804;-0.550;2023-10-13T15:58:38;25.98;60.99
80290;SHT30;69592;44.804;-0.550;2023-10-13T16:01:05;25.92;61.01
80290;SHT30;69592;44.804;-0.550;2023-10-13T16:03:35;25.88;61.21
80290;SHT30;69592;44.804;-0.550;2023-10-13T16:06:02;25.94;61.26
80290;SHT30;69592;44.804;-0.550;2023-10-13T16:08:29;25.80;61.53
80290;SHT30;69592;44.804;-0.550;2023-10-13T16:11:06;25.82;61.54
80290;SHT30;69592;44.804;-0.550;2023-10-13T16:13:39;25.70;61.65
80290;SHT30;69592;44.804;-0.550;2023-10-13T16:16:05;25.66;61.79
80290;SHT30;69592;44.804;-0.550;2023-10-13T16:18:31;25.64;61.79
80290;SHT30;69592;44.804;-0.550;2023-10-13T16:21:01;25.43;61.59